Salem, FL (32356)

12:39 PM EDT on June 27, 2017 (GMT -0400)
Taylor Technical Institute WeatherSTEM | | Change Station

Elev 68 ft 30.08 °N, 83.57 °W | Updated 2 minutes ago

Partly Cloudy
Partly Cloudy
85.7 °F
Feels Like 95 °F
N
0.0
Wind Variable Wind from NE

Today
High -- | Low -- °F
--% Chance of Precip.
Yesterday
High -- | Low -- °F
Precip. -- in
Pressure 30.02 in
Visibility 10.0 miles
Clouds Scattered Clouds 3200 ft
Scattered Clouds 3800 ft
Heat Index 95 °F
Dew Point 75 °F
Humidity 71%
Rainfall 0.00 in
Snow Depth Not available.
6:35 AM 8:38 PM
Waxing Crescent, 17% visible
METAR K40J 271615Z AUTO 34003KT 10SM SCT032 SCT038 30/25 A3002 RMK AO2 LTG DSNT E T02960246
Pressure 30.02 in
Visibility 10.0 miles
Clouds Scattered Clouds 3200 ft
Scattered Clouds 3800 ft
Heat Index 95 °F
Dew Point 75 °F
Humidity 71%
Rainfall 0.00 in
Snow Depth Not available.
6:35 AM 8:38 PM
Waxing Crescent, 17% visible
METAR K40J 271615Z AUTO 34003KT 10SM SCT032 SCT038 30/25 A3002 RMK AO2 LTG DSNT E T02960246

Get Severe Weather Alerts

Thanks for signing up!

Be on the lookout for a verification email in your inbox.

You'll start receiving the daily forecast at 6 AM.

×

10-Day Weather Forecast

Almanac

Astronomy

Jun. 27, 2017 Rise Set
Actual Time
Civil Twilight
Nautical Twilight
Astronomical Twilight
Moon
Length of Visible Light
Length of Day
Tomorrow will be .
, % of the Moon is Illuminated

Today's Extremes

State Highs State Lows

Community

WunderPhotos

Category 6

Welcome to Category 6. This is the collective home for Weather Underground's featured writeups by Dr. Jeff Masters (right), Bob Henson (left), Chris Burt, and other regular contributors.

Nearby

Air Quality

  Air Quality AQ Index Pollutant
Not available.

Snow Depth

Station Depth Elevation

Earthquake Activity

City Distance Mag. Time & Date
Minimum magnitude displayed is 2.5.

Coastal Water Temperatures

Place Temperature

Stations

Nearby Weather Stations

Station Location Temp. Windchill Dew Point Humidity Wind Precip. Elev Updated Type
                   

Watches & Warnings

There are currently no watches in effect.